Daniel Field
KDNL : now visible

Aeroporto :











RITROVATECI SU...

 
LOGIN :

Iscrizione | Disclaimer

   EN    FR    IT 

 









Sommario :    VFR   VFR Marginale   IFR   IFR Intensivo   IFR Molto Intensivo
Visibilità : 
Base nubi : 
>= 8 km
>= 3000ft
5 / 8 km
1000 / 3000 ft
1500m / 5 km
500 / 1000 ft
800 / 1500m
200 / 500 ft
< 800m
< 200 ft
Simboli :   Temporali  Nebbia  Neve Forte  Precipitazioni Forti  Vento > 20 kt






- Altitudine del aeroporto : 423 ft


KDNL - Daniel Field

ULTIMO METAR :
  • 151453Z AUTO VRB04KT 10SM CLR 11/06 A3017 RMK AO2 SLP217 T01060056 51037 TSNO

METARs OBSOLETI :
  • 151353Z AUTO 00000KT 10SM CLR 09/05 A3015 RMK AO2 SLP208 T00940050 TSNO
  • 151253Z AUTO 25003KT 10SM FEW120 08/04 A3010 RMK AO2 SLP194 T00830044 TSNO

TAF KDNL
Valido dal 15 a 15 ore il 16 a 12 ore UTC


151441Z 1515/1612 24005KT P6SM FEW120
FM160000 00000KT P6SM SCT250



MetMap, La meteo Aeronautica in un colpo d'occhio ! - Copyright ORBIFLY Dicembre 2007 - Disclaimer

ORBIFLY MET'MAP TEAM :

Programmazione e sviluppo : Alexandra Zaïnal
Concezione : Baudouin d'Aumeries
Aiuto per la programmazione : Marc-Olivier Méhu
Supporto tecnico e logistico : Manuel Goepfert
Aiuto per la traduzione : Arnaldo La Scala

Contatto : metmap@orbifly.com




FONTI E CREDITI :

   NOAA       Earth
Advisory